Latest Coastal Weather Observations for Port Macquarie Airport

IDN60701

Issued at 8:01 pm EST Monday 6 July 2020 (issued every 10 minutes, with the page automatically refreshed every 10 minutes)

About coastal observations | Map of coastal stations | Coastal observations for NSW | Marine services | Other Formats
Station Details ID: 060139 Name: PORT MACQUARIE AIRPORT AWS Lat: -31.43 Lon: 152.87 Height: 4.2 m
Data from the previous 72 hours. | See also: Recent months at Port Macquarie Airport
Date/Time
EST
Wind Sea
Height
m
Swell Vis
km
Cloud Weather Temp
°C
Press
hPa
Rain since
9am
mm
Dir  Spd
kts
Gust
kts
Height
m
Period
s
Dir
06/08:00pm WNW 4 5 - - - - 10 Cloudy - 10.8 1027.5 0.0
06/07:30pm WSW 4 5 - - - - 10 Cloudy - 10.4 1027.3 0.0
06/07:00pm SW 4 5 - - - - 10 Partly cloudy - 10.1 1027.0 0.0
06/06:30pm S 4 5 - - - - 10 Partly cloudy - 9.5 1026.8 0.0
06/06:00pm WSW 2 4 - - - - 10 - - 10.4 1026.5 0.0
06/05:30pm CALM 0 0 - - - - 10 - - 12.5 1026.1 0.0
06/05:00pm WSW 3 4 - - - - 10 - - 14.2 1025.9 0.0
06/04:30pm WSW 4 6 - - - - 10 - - 16.5 1025.7 0.0
06/04:00pm SW 6 8 - - - - 10 - - 16.4 1025.6 0.0
06/03:30pm SW 7 10 - - - - 10 - - 18.3 1025.3 0.0
06/03:00pm SW 8 13 - - - - 10 - - 18.3 1025.2 0.0
06/02:30pm SW 11 17 - - - - 10 - - 18.1 1025.2 0.0
06/02:00pm SW 11 15 - - - - 10 - - 17.9 1025.2 0.0
06/01:30pm S 10 13 - - - - 10 Partly cloudy - 18.0 1025.3 0.0
06/01:00pm S 11 15 - - - - 10 - - 18.3 1025.5 0.0
06/12:30pm S 11 15 - - - - 10 Partly cloudy - 17.5 1025.7 0.0
06/12:00pm SW 10 13 - - - - 10 - - 18.3 1025.9 0.0
06/11:30am SW 11 16 - - - - 10 - - 17.8 1026.4 0.0
06/11:00am WSW 7 11 - - - - 10 - - 17.0 1026.8 0.0
06/10:30am W 8 12 - - - - 10 - - 15.5 1026.9 0.0
06/10:00am W 8 11 - - - - 10 - - 14.7 1027.1 0.0
06/09:30am W 6 10 - - - - 10 - - 13.7 1027.1 0.0
06/09:00am WSW 5 7 - - - - 10 - - 12.3 1026.9 0.0
06/08:30am W 6 9 - - - - 10 - - 10.8 1026.7 0.0
06/08:00am W 5 6 - - - - 10 - - 9.4 1026.4 0.0
06/07:30am W 3 5 - - - - 10 - - 7.2 1026.1 0.0
06/07:00am W 3 4 - - - - 10 - - 6.3 1025.9 0.0
06/06:30am W 4 5 - - - - 10 - - 7.4 1025.5 0.0
06/06:00am WSW 4 5 - - - - 10 - - 7.8 1025.2 0.0
06/05:30am WSW 6 9 - - - - 10 - - 8.6 1024.9 0.0
06/05:00am W 9 13 - - - - 10 - - 9.0 1024.4 0.0
06/04:30am W 10 14 - - - - 10 - - 9.4 1024.1 0.0
06/04:00am W 9 14 - - - - 10 - - 9.4 1024.0 0.0
06/03:30am W 9 13 - - - - 10 - - 9.4 1024.1 0.0
06/03:00am WNW 8 11 - - - - 10 Mostly clear - 9.5 1024.1 0.0
06/02:30am WNW 10 15 - - - - 10 Partly cloudy - 10.0 1024.2 0.0
06/02:00am WNW 10 15 - - - - 10 Partly cloudy - 10.2 1024.3 0.0
06/01:30am WNW 8 11 - - - - 10 - - 9.8 1024.6 0.0
06/01:00am WNW 8 12 - - - - 10 - - 9.8 1024.7 0.0
06/12:30am WNW 7 10 - - - - 10 - - 9.9 1024.7 0.0
06/12:00am WNW 8 13 - - - - 10 - - 10.2 1024.7 0.0
 
Date/Time
EST
Wind Sea
Height
m
Swell Vis
km
Cloud Weather Temp
°C
Press
hPa
Rain since
9am
mm
Dir  Spd
kts
Gust
kts
Height
m
Period
s
Dir
05/11:30pm WNW 9 11 - - - - 10 - - 10.4 1024.8 0.0
05/11:00pm WNW 9 11 - - - - 10 - - 10.7 1024.6 0.0
05/10:30pm WNW 8 11 - - - - 10 - - 10.6 1024.6 0.0
05/10:00pm WNW 8 11 - - - - 10 - - 10.7 1024.5 0.0
05/09:30pm W 9 11 - - - - 10 - - 10.8 1024.0 0.0
05/09:00pm WNW 6 7 - - - - 10 - - 9.4 1023.8 0.0
05/08:30pm WSW 1 5 - - - - 10 - - 9.8 1023.6 0.0
05/08:00pm SW 6 7 - - - - 10 - - 8.5 1023.3 0.0
05/07:30pm SW 5 6 - - - - 10 - - 9.4 1023.2 0.0
05/07:00pm SSW 6 7 - - - - 10 - - 10.1 1022.9 0.0
05/06:30pm SW 7 8 - - - - 10 - - 12.4 1022.6 0.0
05/06:00pm SW 7 8 - - - - 10 - - 12.7 1022.1 0.0
05/05:30pm SW 4 6 - - - - 10 - - 12.6 1021.7 0.0
05/05:00pm SW 6 6 - - - - 10 - - 13.6 1021.5 0.0
05/04:30pm WSW 7 11 - - - - 10 - - 15.5 1021.2 0.0
05/04:00pm SW 9 13 - - - - 10 - - 16.8 1020.8 0.0
05/03:30pm SW 11 15 - - - - 10 - - 17.2 1020.6 0.0
05/03:00pm WSW 10 15 - - - - 10 - - 17.6 1020.3 0.0
05/02:30pm SSW 11 15 - - - - 10 - - 17.5 1020.1 0.0
05/02:00pm SSW 10 15 - - - - 10 - - 18.0 1020.3 0.0
05/01:30pm SSW 9 14 - - - - 10 - - 17.8 1020.3 0.0
05/01:00pm SW 11 15 - - - - 10 - - 17.7 1020.5 0.0
05/12:30pm WSW 10 15 - - - - 10 - - 17.6 1020.6 0.0
05/12:00pm WSW 10 15 - - - - 10 - - 17.2 1020.9 0.0
05/11:30am WSW 9 14 - - - - 10 - - 16.7 1021.4 0.0
05/11:00am W 9 14 - - - - 10 - - 15.8 1021.6 0.0
05/10:30am W 9 11 - - - - 10 - - 14.8 1021.7 0.0
05/10:00am WNW 9 13 - - - - 10 - - 13.6 1021.9 0.0
05/09:30am W 9 13 - - - - 10 - - 13.0 1021.7 0.0
05/09:00am W 10 14 - - - - 10 - - 11.7 1021.7 0.4
05/08:30am W 8 13 - - - - 10 - - 10.4 1021.5 0.4
05/08:00am WNW 8 11 - - - - 10 - - 9.2 1021.4 0.4
05/07:30am W 10 13 - - - - 10 - - 8.6 1021.2 0.4
05/07:00am WNW 7 8 - - - - 10 - - 6.5 1020.9 0.4
05/06:30am WNW 8 11 - - - - 10 - - 6.9 1020.5 0.4
05/06:28am W 8 11 - - - - 10 - - 6.7 1020.6 0.4
05/06:00am W 4 5 - - - - 10 - - 1.7 1020.3 0.4
05/05:30am WSW 3 4 - - - - 10 - - 1.0 1019.8 0.4
05/05:00am SE 3 3 - - - - 10 - - 1.1 1019.5 0.4
05/04:30am E 1 4 - - - - 10 - - 1.0 1019.4 0.4
05/04:00am CALM 0 0 - - - - 10 - - 1.7 1019.2 0.4
05/03:30am CALM 0 0 - - - - 10 - - 1.7 1019.4 0.4
05/03:00am CALM 0 0 - - - - 10 - - 1.7 1019.6 0.4
05/02:30am CALM 0 0 - - - - 10 - - 1.9 1019.6 0.4
05/02:00am SW 3 3 - - - - 10 - - 1.6 1019.8 0.4
05/01:30am CALM 0 0 - - - - 10 - - 1.3 1019.8 0.4
05/01:00am CALM 0 0 - - - - 10 - - 1.2 1019.8 0.4
05/12:30am CALM 0 0 - - - - 10 - - 1.8 1019.8 0.4
05/12:00am CALM 0 0 - - - - 10 - - 2.9 1019.8 0.4
 
Date/Time
EST
Wind Sea
Height
m
Swell Vis
km
Cloud Weather Temp
°C
Press
hPa
Rain since
9am
mm
Dir  Spd
kts
Gust
kts
Height
m
Period
s
Dir
04/11:30pm CALM 0 0 - - - - 10 - - 2.3 1020.2 0.4
04/11:00pm WNW 2 3 - - - - 10 - - 2.8 1020.3 0.4
04/10:30pm WNW 5 6 - - - - 10 - - 3.4 1020.2 0.4
04/10:00pm NW 4 6 - - - - 10 - - 3.7 1020.5 0.4
04/09:30pm WNW 4 6 - - - - 10 - - 3.6 1020.6 0.4
04/09:00pm WNW 4 5 - - - - 10 - - 3.2 1020.5 0.4
04/08:30pm NW 2 4 - - - - 10 - - 4.9 1020.5 0.4
04/08:00pm NW 4 5 - - - - 10 - - 5.3 1020.6 0.4
04/07:30pm WNW 1 3 - - - - 10 - - 6.0 1020.6 0.4
04/07:00pm CALM 0 0 - - - - 10 - - 6.0 1020.3 0.4
04/06:30pm CALM 0 0 - - - - 10 - - 6.6 1019.9 0.4
04/06:00pm W 3 6 - - - - 10 - - 8.6 1019.2 0.4
04/05:30pm SW 3 5 - - - - 10 - - 10.7 1019.1 0.4
04/05:00pm SW 7 9 - - - - 10 - - 11.8 1018.9 0.4
04/04:30pm SW 9 14 - - - - 10 Partly cloudy - 13.4 1018.8 0.4
04/04:00pm SW 12 19 - - - - 10 - - 14.3 1018.5 0.4
04/03:30pm WSW 14 19 - - - - 10 - - 14.8 1017.9 0.4
04/03:00pm SW 13 18 - - - - 10 - - 15.0 1017.9 0.4
04/02:30pm SW 16 21 - - - - 10 - - 14.9 1017.7 0.4
04/02:00pm WSW 14 21 - - - - 10 Partly cloudy - 15.1 1017.3 0.4
04/01:30pm WSW 13 18 - - - - 10 - - 15.3 1017.2 0.4
04/01:00pm WSW 13 17 - - - - 10 - - 15.0 1017.3 0.4
04/12:30pm WSW 12 17 - - - - 10 - - 14.5 1017.7 0.4
04/12:00pm WSW 11 17 - - - - 10 Mostly cloudy Recent precip. 14.3 1018.2 0.4
04/11:30am W 7 11 - - - - 10 Partly cloudy - 12.2 1018.7 0.4
04/11:00am WNW 6 9 - - - - 10 Partly cloudy - 10.5 1019.0 0.2
04/10:30am W 11 16 - - - - 10 Partly cloudy - 10.7 1019.5 0.2
04/10:00am WSW 7 11 - - - - 10 Partly cloudy - 13.3 1018.8 0.0
04/09:30am WNW 7 11 - - - - 10 - - 13.5 1018.6 0.0
04/09:00am WNW 6 8 - - - - 10 - - 11.1 1018.5 3.2
04/08:30am NW 3 4 - - - - 10 Partly cloudy - 8.5 1018.5 3.2
04/08:00am NW 3 5 - - - - 10 Cloudy - 8.3 1018.5 3.2
04/07:30am CALM 0 0 - - - - 10 - - 6.9 1018.6 3.2
04/07:00am CALM 0 2 - - - - 10 - - 4.1 1018.6 3.2
04/06:30am SE 2 4 - - - - 10 - - 4.1 1018.2 3.2
04/06:00am NW 4 5 - - - - 10 - - 5.6 1018.2 3.2
04/05:30am WSW 4 6 - - - - 10 - - 6.1 1018.0 3.2
04/05:00am W 7 8 - - - - 10 - - 7.2 1017.7 3.2
04/04:30am WNW 1 5 - - - - 10 - - 6.7 1017.3 3.2
04/04:00am NW 4 6 - - - - 10 - - 9.2 1017.4 3.2
04/03:30am W 6 8 - - - - 10 - - 10.0 1017.6 3.2
04/03:00am W 7 9 - - - - 10 - - 10.6 1017.8 3.2
04/02:30am W 6 8 - - - - 10 - - 10.3 1017.9 3.2
04/02:00am W 5 7 - - - - 10 - - 9.8 1018.4 3.2
04/01:30am CALM 0 2 - - - - 10 - - 9.5 1018.3 3.2
04/01:00am W 6 8 - - - - 10 - - 10.9 1018.2 3.2
04/12:30am WNW 8 10 - - - - 10 - - 12.1 1018.4 3.2
04/12:00am W 8 9 - - - - 10 - - 12.5 1018.2 3.2
 
Date/Time
EST
Wind Sea
Height
m
Swell Vis
km
Cloud Weather Temp
°C
Press
hPa
Rain since
9am
mm
Dir  Spd
kts
Gust
kts
Height
m
Period
s
Dir
03/11:30pm W 7 9 - - - - 10 - - 12.5 1018.2 3.2
03/11:00pm W 6 11 - - - - 10 - - 12.4 1018.6 3.2
03/10:30pm W 4 6 - - - - 10 - - 11.1 1018.8 3.2
03/10:00pm WSW 3 4 - - - - 10 - - 9.9 1018.9 3.2
03/09:58pm WSW 3 4 - - - - 10 - - 11.0 1018.9 3.2
03/09:30pm WSW 1 5 - - - - 1 - - 10.7 1018.7 3.2
03/09:00pm CALM 0 0 - - - - 1 Mostly clear - 11.4 1018.7 3.2
03/08:55pm CALM 0 0 - - - - 5 Partly cloudy - 11.5 1018.7 3.2
03/08:30pm NW 1 4 - - - - 10 Partly cloudy - 12.1 1018.7 3.2

Other formats

Comma delimited format used in spreadsheet applications
http://www.bom.gov.au/fwo/IDN60701/IDN60701.94786.axf

JavaScript Object Notation format (JSON) in row-major order
http://www.bom.gov.au/fwo/IDN60701/IDN60701.94786.json

Data quality

Most of these data are generated automatically and are frequently updated. Quality checks on data are not normally performed. It is possible for incorrect values to appear. Refer to information at About Latest Weather Observations and please check the disclaimer before using these data.